This is the latest recevied weather packets stored in our database for station/object KD0KHX-10. If no packets are shown the sender has not sent any weather packets the latest 10 day(s).
| Time | Temp. | Humidity | Pressure | Rain* | Wind** | Luminosity | Snow |
|---|---|---|---|---|---|---|---|
| 1778177673 | 22.22° C | 30% | 1006.3 hPa | 0 mm | - | - | - |
| 1778177103 | 21.67° C | 30% | 1006.4 hPa | 0 mm | - | - | - |
| 1778176803 | 21.67° C | 31% | 1006.4 hPa | 0 mm | - | - | - |
| 1778176503 | 21.67° C | 30% | 1006.5 hPa | 0 mm | - | - | - |
| 1778176337 | 21.67° C | 32% | 1006.5 hPa | 0 mm | - | - | - |
| 1778175903 | 21.67° C | 32% | 1006.5 hPa | 0 mm | - | - | - |
| 1778175603 | 21.11° C | 33% | 1006.5 hPa | 0 mm | - | - | - |
| 1778175303 | 21.11° C | 34% | 1006.6 hPa | 0 mm | - | - | - |
| 1778175003 | 21.11° C | 34% | 1006.9 hPa | 0 mm | - | - | - |
| 1778174703 | 20.56° C | 34% | 1007 hPa | 0 mm | - | - | - |
| 1778174672 | 20.56° C | 34% | 1007 hPa | 0 mm | - | - | - |
| 1778174238 | 20° C | 36% | 1007.1 hPa | 0 mm | - | - | - |
| 1778173937 | 20° C | 35% | 1007.1 hPa | 0 mm | - | - | - |
| 1778173503 | 20.56° C | 34% | 1007.2 hPa | 0 mm | - | - | - |
| 1778173472 | 20.56° C | 34% | 1007.2 hPa | 0 mm | - | - | - |
| 1778172903 | 20° C | 35% | 1007.1 hPa | 0 mm | - | - | - |
| 1778172603 | 20° C | 35% | 1007.2 hPa | 0 mm | - | - | - |
| 1778172303 | 20° C | 36% | 1007.2 hPa | 0 mm | - | - | - |
| 1778172137 | 19.44° C | 38% | 1007.2 hPa | 0 mm | - | - | - |
| 1778171973 | 18.89° C | 39% | 1007.2 hPa | 0 mm | - | - | - |
| 1778171537 | 18.33° C | 44% | 1007.3 hPa | 0 mm | - | - | - |
| 1778171103 | 18.33° C | 42% | 1007.5 hPa | 0 mm | - | - | - |
| 1778170803 | 18.33° C | 42% | 1007.6 hPa | 0 mm | - | - | - |
| 1778170503 | 18.33° C | 43% | 1007.7 hPa | 0 mm | - | - | - |
| 1778170337 | 18.33° C | 42% | 1007.5 hPa | 0 mm | - | - | - |
* Rain latest hour (hover to see other rain measurements)
** Current wind speed in m/s (hover to see current wind gust speed)